sensor_id;sensor_type;location;lat;lon;timestamp;P1;durP1;ratioP1;P2;durP2;ratioP2
828;SDS011;396;52.558;13.188;2024-03-23T00:54:19;2.10;;;0.67;;
828;SDS011;396;52.558;13.188;2024-03-23T00:56:45;2.40;;;0.57;;
828;SDS011;396;52.558;13.188;2024-03-23T00:59:12;2.30;;;0.80;;
828;SDS011;396;52.558;13.188;2024-03-23T01:01:38;4.07;;;0.93;;
828;SDS011;396;52.558;13.188;2024-03-23T01:04:05;2.33;;;0.80;;
828;SDS011;396;52.558;13.188;2024-03-23T01:06:31;2.73;;;1.00;;
828;SDS011;396;52.558;13.188;2024-03-23T01:08:57;2.00;;;0.50;;
828;SDS011;396;52.558;13.188;2024-03-23T01:11:24;2.27;;;0.50;;
828;SDS011;396;52.558;13.188;2024-03-23T01:13:53;2.10;;;0.60;;
828;SDS011;396;52.558;13.188;2024-03-23T01:16:20;2.50;;;0.60;;
828;SDS011;396;52.558;13.188;2024-03-23T01:18:46;3.40;;;1.20;;
828;SDS011;396;52.558;13.188;2024-03-23T01:21:13;3.67;;;1.00;;
828;SDS011;396;52.558;13.188;2024-03-23T01:23:38;2.20;;;0.57;;
828;SDS011;396;52.558;13.188;2024-03-23T01:26:05;2.00;;;0.50;;
828;SDS011;396;52.558;13.188;2024-03-23T01:28:32;1.90;;;0.40;;
828;SDS011;396;52.558;13.188;2024-03-23T01:30:59;2.30;;;0.57;;
828;SDS011;396;52.558;13.188;2024-03-23T01:33:24;1.90;;;0.50;;
828;SDS011;396;52.558;13.188;2024-03-23T01:35:51;1.87;;;0.30;;
828;SDS011;396;52.558;13.188;2024-03-23T01:38:16;2.70;;;0.87;;
828;SDS011;396;52.558;13.188;2024-03-23T01:40:43;2.67;;;0.90;;
828;SDS011;396;52.558;13.188;2024-03-23T01:43:09;2.03;;;0.50;;
828;SDS011;396;52.558;13.188;2024-03-23T01:45:37;3.43;;;0.70;;
828;SDS011;396;52.558;13.188;2024-03-23T01:48:03;2.70;;;0.63;;
828;SDS011;396;52.558;13.188;2024-03-23T01:50:31;2.10;;;0.50;;
828;SDS011;396;52.558;13.188;2024-03-23T01:52:59;2.00;;;0.50;;
828;SDS011;396;52.558;13.188;2024-03-23T01:55:26;2.03;;;0.50;;
828;SDS011;396;52.558;13.188;2024-03-23T01:57:52;3.27;;;0.80;;
828;SDS011;396;52.558;13.188;2024-03-23T02:00:19;2.00;;;0.40;;
828;SDS011;396;52.558;13.188;2024-03-23T02:02:46;1.90;;;0.40;;
828;SDS011;396;52.558;13.188;2024-03-23T02:05:13;2.53;;;0.60;;
828;SDS011;396;52.558;13.188;2024-03-23T02:07:39;2.40;;;0.70;;
828;SDS011;396;52.558;13.188;2024-03-23T02:10:08;2.00;;;0.50;;
828;SDS011;396;52.558;13.188;2024-03-23T02:12:35;2.73;;;0.70;;
828;SDS011;396;52.558;13.188;2024-03-23T02:15:02;2.23;;;0.70;;
828;SDS011;396;52.558;13.188;2024-03-23T02:17:28;2.43;;;0.80;;
828;SDS011;396;52.558;13.188;2024-03-23T02:19:57;2.63;;;0.73;;
828;SDS011;396;52.558;13.188;2024-03-23T02:22:23;2.30;;;0.60;;
828;SDS011;396;52.558;13.188;2024-03-23T02:24:51;2.00;;;0.43;;
828;SDS011;396;52.558;13.188;2024-03-23T02:27:17;2.63;;;0.60;;
828;SDS011;396;52.558;13.188;2024-03-23T02:29:43;2.63;;;0.90;;
828;SDS011;396;52.558;13.188;2024-03-23T02:32:09;1.90;;;0.50;;
828;SDS011;396;52.558;13.188;2024-03-23T02:34:35;2.00;;;0.47;;
828;SDS011;396;52.558;13.188;2024-03-23T02:37:01;1.90;;;0.40;;
828;SDS011;396;52.558;13.188;2024-03-23T02:39:28;2.40;;;0.50;;
828;SDS011;396;52.558;13.188;2024-03-23T02:41:55;1.90;;;0.40;;
828;SDS011;396;52.558;13.188;2024-03-23T02:44:21;2.53;;;0.70;;
828;SDS011;396;52.558;13.188;2024-03-23T02:46:47;2.73;;;0.70;;
828;SDS011;396;52.558;13.188;2024-03-23T02:49:14;2.40;;;0.80;;
828;SDS011;396;52.558;13.188;2024-03-23T02:51:39;2.10;;;0.60;;
828;SDS011;396;52.558;13.188;2024-03-23T02:54:06;2.50;;;0.50;;
828;SDS011;396;52.558;13.188;2024-03-23T02:56:32;1.90;;;0.40;;
828;SDS011;396;52.558;13.188;2024-03-23T02:59:00;2.83;;;0.40;;
828;SDS011;396;52.558;13.188;2024-03-23T03:01:26;2.27;;;0.67;;
828;SDS011;396;52.558;13.188;2024-03-23T03:03:52;2.83;;;0.60;;
828;SDS011;396;52.558;13.188;2024-03-23T03:06:24;1.93;;;0.43;;
828;SDS011;396;52.558;13.188;2024-03-23T03:08:51;2.00;;;0.50;;
828;SDS011;396;52.558;13.188;2024-03-23T03:11:16;2.33;;;0.50;;
828;SDS011;396;52.558;13.188;2024-03-23T03:13:43;2.10;;;0.60;;
828;SDS011;396;52.558;13.188;2024-03-23T03:16:10;2.17;;;0.77;;
828;SDS011;396;52.558;13.188;2024-03-23T03:18:37;2.10;;;0.60;;
828;SDS011;396;52.558;13.188;2024-03-23T03:21:03;2.30;;;0.87;;
828;SDS011;396;52.558;13.188;2024-03-23T03:23:33;2.63;;;0.60;;
828;SDS011;396;52.558;13.188;2024-03-23T03:25:59;1.90;;;0.50;;
828;SDS011;396;52.558;13.188;2024-03-23T03:28:26;2.23;;;0.60;;
828;SDS011;396;52.558;13.188;2024-03-23T03:30:55;2.10;;;0.47;;
828;SDS011;396;52.558;13.188;2024-03-23T03:33:23;2.30;;;0.53;;
828;SDS011;396;52.558;13.188;2024-03-23T03:35:49;2.43;;;0.53;;
828;SDS011;396;52.558;13.188;2024-03-23T03:38:17;1.90;;;0.40;;
828;SDS011;396;52.558;13.188;2024-03-23T03:40:43;2.40;;;0.70;;
828;SDS011;396;52.558;13.188;2024-03-23T03:43:10;5.90;;;1.00;;
828;SDS011;396;52.558;13.188;2024-03-23T03:45:36;1.87;;;0.40;;
828;SDS011;396;52.558;13.188;2024-03-23T03:48:03;2.60;;;0.80;;
828;SDS011;396;52.558;13.188;2024-03-23T03:50:30;2.90;;;0.80;;
828;SDS011;396;52.558;13.188;2024-03-23T03:52:57;3.43;;;1.10;;
828;SDS011;396;52.558;13.188;2024-03-23T03:55:22;2.20;;;0.57;;
828;SDS011;396;52.558;13.188;2024-03-23T03:57:49;2.10;;;0.60;;
828;SDS011;396;52.558;13.188;2024-03-23T04:00:15;5.10;;;0.50;;
828;SDS011;396;52.558;13.188;2024-03-23T04:02:41;2.87;;;0.97;;
828;SDS011;396;52.558;13.188;2024-03-23T04:05:07;3.03;;;0.77;;
828;SDS011;396;52.558;13.188;2024-03-23T04:07:35;2.10;;;0.60;;
828;SDS011;396;52.558;13.188;2024-03-23T04:10:01;1.80;;;0.30;;
828;SDS011;396;52.558;13.188;2024-03-23T04:12:32;2.63;;;0.40;;
828;SDS011;396;52.558;13.188;2024-03-23T04:14:57;2.00;;;0.60;;
828;SDS011;396;52.558;13.188;2024-03-23T04:17:24;2.00;;;0.60;;
828;SDS011;396;52.558;13.188;2024-03-23T04:19:50;2.23;;;0.60;;
828;SDS011;396;52.558;13.188;2024-03-23T04:22:17;2.37;;;0.40;;
828;SDS011;396;52.558;13.188;2024-03-23T04:24:44;1.87;;;0.30;;
828;SDS011;396;52.558;13.188;2024-03-23T04:27:11;2.30;;;0.60;;
828;SDS011;396;52.558;13.188;2024-03-23T04:29:36;2.10;;;0.50;;
828;SDS011;396;52.558;13.188;2024-03-23T04:32:03;15.57;;;1.10;;
828;SDS011;396;52.558;13.188;2024-03-23T04:34:30;2.20;;;0.50;;
828;SDS011;396;52.558;13.188;2024-03-23T04:36:57;2.07;;;0.50;;
828;SDS011;396;52.558;13.188;2024-03-23T04:39:23;2.40;;;0.70;;
828;SDS011;396;52.558;13.188;2024-03-23T04:41:51;2.23;;;0.40;;
828;SDS011;396;52.558;13.188;2024-03-23T04:44:18;1.90;;;0.40;;
828;SDS011;396;52.558;13.188;2024-03-23T04:46:44;2.10;;;0.40;;
828;SDS011;396;52.558;13.188;2024-03-23T04:49:11;2.30;;;0.60;;
828;SDS011;396;52.558;13.188;2024-03-23T04:51:37;2.20;;;0.50;;
828;SDS011;396;52.558;13.188;2024-03-23T04:54:06;1.87;;;0.40;;
828;SDS011;396;52.558;13.188;2024-03-23T04:56:32;2.00;;;0.50;;
828;SDS011;396;52.558;13.188;2024-03-23T04:59:00;2.30;;;0.43;;
828;SDS011;396;52.558;13.188;2024-03-23T05:01:27;1.90;;;0.40;;
828;SDS011;396;52.558;13.188;2024-03-23T05:03:53;2.20;;;0.40;;
828;SDS011;396;52.558;13.188;2024-03-23T05:06:19;3.10;;;0.77;;
828;SDS011;396;52.558;13.188;2024-03-23T05:08:45;2.10;;;0.50;;
828;SDS011;396;52.558;13.188;2024-03-23T05:11:11;2.00;;;0.50;;
828;SDS011;396;52.558;13.188;2024-03-23T05:13:38;1.80;;;0.30;;
828;SDS011;396;52.558;13.188;2024-03-23T05:16:05;2.73;;;0.50;;
828;SDS011;396;52.558;13.188;2024-03-23T05:18:32;2.53;;;0.70;;
828;SDS011;396;52.558;13.188;2024-03-23T05:20:58;1.90;;;0.40;;
828;SDS011;396;52.558;13.188;2024-03-23T05:23:25;2.10;;;0.53;;
828;SDS011;396;52.558;13.188;2024-03-23T05:25:51;2.30;;;0.43;;
828;SDS011;396;52.558;13.188;2024-03-23T05:28:18;1.80;;;0.30;;
828;SDS011;396;52.558;13.188;2024-03-23T05:30:45;1.90;;;0.40;;
828;SDS011;396;52.558;13.188;2024-03-23T05:33:18;3.23;;;0.53;;
828;SDS011;396;52.558;13.188;2024-03-23T05:35:44;2.10;;;0.40;;
828;SDS011;396;52.558;13.188;2024-03-23T05:38:11;1.87;;;0.30;;
828;SDS011;396;52.558;13.188;2024-03-23T05:40:36;2.10;;;0.50;;
828;SDS011;396;52.558;13.188;2024-03-23T05:43:05;3.03;;;0.63;;
828;SDS011;396;52.558;13.188;2024-03-23T05:45:30;1.90;;;0.40;;
828;SDS011;396;52.558;13.188;2024-03-23T05:47:57;1.90;;;0.40;;
828;SDS011;396;52.558;13.188;2024-03-23T05:50:24;2.57;;;0.50;;
828;SDS011;396;52.558;13.188;2024-03-23T05:52:51;2.00;;;0.50;;
828;SDS011;396;52.558;13.188;2024-03-23T05:55:17;2.10;;;0.50;;
828;SDS011;396;52.558;13.188;2024-03-23T05:57:44;2.00;;;0.50;;
828;SDS011;396;52.558;13.188;2024-03-23T06:00:11;2.10;;;0.40;;
828;SDS011;396;52.558;13.188;2024-03-23T06:02:41;67.70;;;37.87;;
828;SDS011;396;52.558;13.188;2024-03-23T06:05:09;2.53;;;0.80;;
828;SDS011;396;52.558;13.188;2024-03-23T06:07:36;1.90;;;0.30;;
828;SDS011;396;52.558;13.188;2024-03-23T06:10:03;1.90;;;0.40;;
828;SDS011;396;52.558;13.188;2024-03-23T06:12:29;1.93;;;0.43;;
828;SDS011;396;52.558;13.188;2024-03-23T06:14:56;2.20;;;0.50;;
828;SDS011;396;52.558;13.188;2024-03-23T06:17:22;2.00;;;0.50;;
828;SDS011;396;52.558;13.188;2024-03-23T06:19:48;1.90;;;0.40;;
828;SDS011;396;52.558;13.188;2024-03-23T06:22:14;2.17;;;0.73;;
828;SDS011;396;52.558;13.188;2024-03-23T06:24:42;4.13;;;0.50;;
828;SDS011;396;52.558;13.188;2024-03-23T06:27:08;2.70;;;0.67;;
828;SDS011;396;52.558;13.188;2024-03-23T06:29:34;2.20;;;0.40;;
828;SDS011;396;52.558;13.188;2024-03-23T06:32:01;4.47;;;2.83;;
828;SDS011;396;52.558;13.188;2024-03-23T06:34:28;430.67;;;34.67;;
828;SDS011;396;52.558;13.188;2024-03-23T06:36:54;1.90;;;0.40;;
828;SDS011;396;52.558;13.188;2024-03-23T06:39:20;4.67;;;0.73;;
828;SDS011;396;52.558;13.188;2024-03-23T06:41:52;2.90;;;0.80;;
828;SDS011;396;52.558;13.188;2024-03-23T06:44:20;2.10;;;0.40;;
828;SDS011;396;52.558;13.188;2024-03-23T06:46:46;2.10;;;0.50;;
828;SDS011;396;52.558;13.188;2024-03-23T06:49:14;2.00;;;0.40;;
828;SDS011;396;52.558;13.188;2024-03-23T06:51:40;2.83;;;0.60;;
828;SDS011;396;52.558;13.188;2024-03-23T06:54:06;1.90;;;0.40;;
828;SDS011;396;52.558;13.188;2024-03-23T06:56:33;112.97;;;8.47;;
828;SDS011;396;52.558;13.188;2024-03-23T06:59:00;1999.90;;;999.90;;
828;SDS011;396;52.558;13.188;2024-03-23T07:01:27;1999.90;;;999.90;;
828;SDS011;396;52.558;13.188;2024-03-23T07:03:53;1.90;;;0.37;;
828;SDS011;396;52.558;13.188;2024-03-23T07:06:20;1999.90;;;999.90;;
828;SDS011;396;52.558;13.188;2024-03-23T07:08:46;1999.90;;;999.90;;
828;SDS011;396;52.558;13.188;2024-03-23T07:11:16;1999.90;;;999.90;;
828;SDS011;396;52.558;13.188;2024-03-23T07:13:43;1999.90;;;999.90;;
828;SDS011;396;52.558;13.188;2024-03-23T07:16:12;14.80;;;0.70;;
828;SDS011;396;52.558;13.188;2024-03-23T07:18:38;6.90;;;0.53;;
828;SDS011;396;52.558;13.188;2024-03-23T07:21:05;116.57;;;8.10;;
828;SDS011;396;52.558;13.188;2024-03-23T07:23:32;2.40;;;0.80;;
828;SDS011;396;52.558;13.188;2024-03-23T07:25:59;2.20;;;0.40;;
828;SDS011;396;52.558;13.188;2024-03-23T07:28:25;2.20;;;0.53;;
828;SDS011;396;52.558;13.188;2024-03-23T07:31:04;2.20;;;0.43;;
828;SDS011;396;52.558;13.188;2024-03-23T07:33:32;2.10;;;0.40;;
828;SDS011;396;52.558;13.188;2024-03-23T07:35:59;2.70;;;0.83;;
828;SDS011;396;52.558;13.188;2024-03-23T07:38:26;2.10;;;0.50;;
828;SDS011;396;52.558;13.188;2024-03-23T07:41:02;2.13;;;0.57;;
828;SDS011;396;52.558;13.188;2024-03-23T07:43:28;2.10;;;0.40;;
828;SDS011;396;52.558;13.188;2024-03-23T07:45:54;3.70;;;0.83;;
828;SDS011;396;52.558;13.188;2024-03-23T07:48:21;2.10;;;0.50;;
828;SDS011;396;52.558;13.188;2024-03-23T07:50:57;2.17;;;0.50;;
828;SDS011;396;52.558;13.188;2024-03-23T07:53:23;2.50;;;0.57;;
828;SDS011;396;52.558;13.188;2024-03-23T07:55:52;2.73;;;0.83;;
828;SDS011;396;52.558;13.188;2024-03-23T07:58:19;2.00;;;0.30;;
828;SDS011;396;52.558;13.188;2024-03-23T08:00:46;2.00;;;0.30;;
828;SDS011;396;52.558;13.188;2024-03-23T08:03:11;4.20;;;0.70;;
828;SDS011;396;52.558;13.188;2024-03-23T08:05:38;2.83;;;0.50;;
828;SDS011;396;52.558;13.188;2024-03-23T08:08:05;2.30;;;0.60;;
828;SDS011;396;52.558;13.188;2024-03-23T08:10:32;2.00;;;0.30;;
828;SDS011;396;52.558;13.188;2024-03-23T08:12:58;2.00;;;0.40;;
828;SDS011;396;52.558;13.188;2024-03-23T08:15:24;2.10;;;0.50;;
828;SDS011;396;52.558;13.188;2024-03-23T08:17:50;2.00;;;0.30;;
828;SDS011;396;52.558;13.188;2024-03-23T08:20:17;2.10;;;0.50;;
828;SDS011;396;52.558;13.188;2024-03-23T08:22:42;2.10;;;0.50;;
828;SDS011;396;52.558;13.188;2024-03-23T08:25:10;2.00;;;0.30;;
828;SDS011;396;52.558;13.188;2024-03-23T08:27:36;2.00;;;0.33;;
828;SDS011;396;52.558;13.188;2024-03-23T08:30:02;2.00;;;0.30;;
828;SDS011;396;52.558;13.188;2024-03-23T08:32:29;2.03;;;0.40;;
828;SDS011;396;52.558;13.188;2024-03-23T08:34:55;2.00;;;0.40;;
828;SDS011;396;52.558;13.188;2024-03-23T08:37:21;2.50;;;0.57;;
828;SDS011;396;52.558;13.188;2024-03-23T08:39:50;2.00;;;0.30;;
828;SDS011;396;52.558;13.188;2024-03-23T08:42:17;2.50;;;0.60;;
828;SDS011;396;52.558;13.188;2024-03-23T08:44:44;2.40;;;0.60;;
828;SDS011;396;52.558;13.188;2024-03-23T08:47:14;2.00;;;0.33;;
828;SDS011;396;52.558;13.188;2024-03-23T08:49:41;2.00;;;0.40;;
828;SDS011;396;52.558;13.188;2024-03-23T08:52:06;2.00;;;0.40;;
828;SDS011;396;52.558;13.188;2024-03-23T08:54:33;2.50;;;0.60;;
828;SDS011;396;52.558;13.188;2024-03-23T08:56:59;1.97;;;0.30;;
828;SDS011;396;52.558;13.188;2024-03-23T08:59:27;2.00;;;0.40;;
828;SDS011;396;52.558;13.188;2024-03-23T09:01:53;2.00;;;0.30;;
828;SDS011;396;52.558;13.188;2024-03-23T09:04:19;2.10;;;0.40;;
828;SDS011;396;52.558;13.188;2024-03-23T09:06:46;2.00;;;0.30;;
828;SDS011;396;52.558;13.188;2024-03-23T09:09:13;3.37;;;0.67;;
828;SDS011;396;52.558;13.188;2024-03-23T09:11:38;2.10;;;0.40;;
828;SDS011;396;52.558;13.188;2024-03-23T09:14:05;2.00;;;0.30;;
828;SDS011;396;52.558;13.188;2024-03-23T09:16:32;2.00;;;0.30;;
828;SDS011;396;52.558;13.188;2024-03-23T09:18:59;2.10;;;0.40;;
828;SDS011;396;52.558;13.188;2024-03-23T09:21:24;2.00;;;0.40;;
828;SDS011;396;52.558;13.188;2024-03-23T09:23:51;3.70;;;0.80;;
828;SDS011;396;52.558;13.188;2024-03-23T09:26:16;2.10;;;0.63;;
828;SDS011;396;52.558;13.188;2024-03-23T09:28:43;2.00;;;0.30;;
828;SDS011;396;52.558;13.188;2024-03-23T09:31:09;2.00;;;0.40;;
828;SDS011;396;52.558;13.188;2024-03-23T09:33:40;2.00;;;0.30;;
828;SDS011;396;52.558;13.188;2024-03-23T09:36:06;1.97;;;0.30;;
828;SDS011;396;52.558;13.188;2024-03-23T09:38:34;2.67;;;1.07;;
828;SDS011;396;52.558;13.188;2024-03-23T09:40:59;1.97;;;0.30;;
828;SDS011;396;52.558;13.188;2024-03-23T09:43:26;2.00;;;0.40;;
828;SDS011;396;52.558;13.188;2024-03-23T09:45:52;2.00;;;0.40;;
828;SDS011;396;52.558;13.188;2024-03-23T09:48:19;2.37;;;0.60;;
828;SDS011;396;52.558;13.188;2024-03-23T09:50:46;2.27;;;0.53;;
828;SDS011;396;52.558;13.188;2024-03-23T09:53:14;2.20;;;0.50;;
828;SDS011;396;52.558;13.188;2024-03-23T09:55:40;2.40;;;0.40;;
828;SDS011;396;52.558;13.188;2024-03-23T09:58:08;2.30;;;0.53;;
828;SDS011;396;52.558;13.188;2024-03-23T10:00:37;2.87;;;0.60;;
828;SDS011;396;52.558;13.188;2024-03-23T10:03:04;2.00;;;0.43;;
828;SDS011;396;52.558;13.188;2024-03-23T10:05:31;2.40;;;0.50;;
828;SDS011;396;52.558;13.188;2024-03-23T10:08:00;2.27;;;0.63;;
828;SDS011;396;52.558;13.188;2024-03-23T10:10:43;11.83;;;2.03;;
828;SDS011;396;52.558;13.188;2024-03-23T10:13:11;2.27;;;0.50;;
828;SDS011;396;52.558;13.188;2024-03-23T10:15:48;1.90;;;0.30;;
828;SDS011;396;52.558;13.188;2024-03-23T10:18:22;2.37;;;0.47;;
828;SDS011;396;52.558;13.188;2024-03-23T10:20:50;2.00;;;0.30;;
828;SDS011;396;52.558;13.188;2024-03-23T10:23:19;2.30;;;0.50;;
828;SDS011;396;52.558;13.188;2024-03-23T10:25:44;2.00;;;0.40;;
828;SDS011;396;52.558;13.188;2024-03-23T10:28:11;2.00;;;0.40;;
828;SDS011;396;52.558;13.188;2024-03-23T10:30:37;3.60;;;0.87;;
828;SDS011;396;52.558;13.188;2024-03-23T10:33:07;1.97;;;0.30;;
828;SDS011;396;52.558;13.188;2024-03-23T10:35:33;2.00;;;0.43;;
828;SDS011;396;52.558;13.188;2024-03-23T10:37:59;2.23;;;0.60;;
828;SDS011;396;52.558;13.188;2024-03-23T10:40:28;2.40;;;0.57;;
828;SDS011;396;52.558;13.188;2024-03-23T10:42:55;3.67;;;0.80;;
828;SDS011;396;52.558;13.188;2024-03-23T10:45:24;2.60;;;0.43;;
828;SDS011;396;52.558;13.188;2024-03-23T10:47:50;2.70;;;0.53;;
828;SDS011;396;52.558;13.188;2024-03-23T10:50:17;4.07;;;0.57;;
828;SDS011;396;52.558;13.188;2024-03-23T10:52:44;5.33;;;0.50;;
828;SDS011;396;52.558;13.188;2024-03-23T10:55:13;2.00;;;0.40;;
828;SDS011;396;52.558;13.188;2024-03-23T10:57:44;2.10;;;0.50;;
828;SDS011;396;52.558;13.188;2024-03-23T11:00:14;2.50;;;0.40;;
828;SDS011;396;52.558;13.188;2024-03-23T11:02:41;2.23;;;0.40;;
828;SDS011;396;52.558;13.188;2024-03-23T11:07:54;2.30;;;0.60;;
828;SDS011;396;52.558;13.188;2024-03-23T11:10:24;2.00;;;0.40;;
828;SDS011;396;52.558;13.188;2024-03-23T11:12:53;2.20;;;0.40;;
828;SDS011;396;52.558;13.188;2024-03-23T11:15:19;2.73;;;0.60;;
828;SDS011;396;52.558;13.188;2024-03-23T11:20:31;2.00;;;0.30;;
828;SDS011;396;52.558;13.188;2024-03-23T11:22:57;2.20;;;0.60;;
828;SDS011;396;52.558;13.188;2024-03-23T11:25:24;2.20;;;0.53;;
828;SDS011;396;52.558;13.188;2024-03-23T11:27:53;2.07;;;0.43;;
828;SDS011;396;52.558;13.188;2024-03-23T11:30:22;2.10;;;0.40;;
828;SDS011;396;52.558;13.188;2024-03-23T11:32:49;3.10;;;0.90;;
828;SDS011;396;52.558;13.188;2024-03-23T11:35:26;2.50;;;0.60;;
828;SDS011;396;52.558;13.188;2024-03-23T11:38:02;2.10;;;0.50;;
828;SDS011;396;52.558;13.188;2024-03-23T11:40:30;2.67;;;0.70;;
828;SDS011;396;52.558;13.188;2024-03-23T11:42:58;2.00;;;0.30;;
828;SDS011;396;52.558;13.188;2024-03-23T11:45:25;2.00;;;0.40;;
828;SDS011;396;52.558;13.188;2024-03-23T11:48:01;3.50;;;0.90;;
828;SDS011;396;52.558;13.188;2024-03-23T11:50:28;2.10;;;0.50;;
828;SDS011;396;52.558;13.188;2024-03-23T11:53:05;2.20;;;0.37;;
828;SDS011;396;52.558;13.188;2024-03-23T11:55:39;2.30;;;0.50;;
828;SDS011;396;52.558;13.188;2024-03-23T11:58:08;2.63;;;0.63;;
828;SDS011;396;52.558;13.188;2024-03-23T12:00:34;2.30;;;0.70;;
828;SDS011;396;52.558;13.188;2024-03-23T12:03:00;2.10;;;0.50;;
828;SDS011;396;52.558;13.188;2024-03-23T12:05:27;5.20;;;0.63;;
828;SDS011;396;52.558;13.188;2024-03-23T12:07:54;2.57;;;0.67;;
828;SDS011;396;52.558;13.188;2024-03-23T12:10:21;2.20;;;0.40;;
828;SDS011;396;52.558;13.188;2024-03-23T12:12:57;2.07;;;0.43;;
828;SDS011;396;52.558;13.188;2024-03-23T12:15:27;2.30;;;0.60;;
828;SDS011;396;52.558;13.188;2024-03-23T12:18:05;4.33;;;0.77;;
828;SDS011;396;52.558;13.188;2024-03-23T12:20:32;2.23;;;0.50;;
828;SDS011;396;52.558;13.188;2024-03-23T12:23:04;2.20;;;0.47;;
828;SDS011;396;52.558;13.188;2024-03-23T12:25:32;2.57;;;0.80;;
828;SDS011;396;52.558;13.188;2024-03-23T12:27:58;2.00;;;0.40;;
828;SDS011;396;52.558;13.188;2024-03-23T12:30:26;3.27;;;0.83;;
828;SDS011;396;52.558;13.188;2024-03-23T12:32:52;2.33;;;0.60;;
828;SDS011;396;52.558;13.188;2024-03-23T12:35:18;2.10;;;0.60;;
828;SDS011;396;52.558;13.188;2024-03-23T12:37:44;2.50;;;0.50;;
828;SDS011;396;52.558;13.188;2024-03-23T12:40:11;2.57;;;0.50;;
828;SDS011;396;52.558;13.188;2024-03-23T12:42:37;2.10;;;0.47;;
828;SDS011;396;52.558;13.188;2024-03-23T12:45:04;2.30;;;0.73;;
828;SDS011;396;52.558;13.188;2024-03-23T12:47:31;3.13;;;0.80;;
828;SDS011;396;52.558;13.188;2024-03-23T12:49:58;2.40;;;0.53;;
828;SDS011;396;52.558;13.188;2024-03-23T12:52:24;2.30;;;0.60;;
828;SDS011;396;52.558;13.188;2024-03-23T12:54:53;5.60;;;1.00;;
828;SDS011;396;52.558;13.188;2024-03-23T12:57:21;2.40;;;0.60;;
828;SDS011;396;52.558;13.188;2024-03-23T12:59:48;2.67;;;0.70;;
828;SDS011;396;52.558;13.188;2024-03-23T13:02:16;2.40;;;0.60;;
828;SDS011;396;52.558;13.188;2024-03-23T13:04:45;2.43;;;0.70;;
828;SDS011;396;52.558;13.188;2024-03-23T13:07:11;2.10;;;0.50;;
828;SDS011;396;52.558;13.188;2024-03-23T13:09:37;2.50;;;0.70;;
828;SDS011;396;52.558;13.188;2024-03-23T13:12:03;3.80;;;1.03;;
828;SDS011;396;52.558;13.188;2024-03-23T13:14:30;10.07;;;1.03;;
828;SDS011;396;52.558;13.188;2024-03-23T13:16:56;2.63;;;0.67;;
828;SDS011;396;52.558;13.188;2024-03-23T13:19:22;4.00;;;1.43;;
828;SDS011;396;52.558;13.188;2024-03-23T13:21:53;3.20;;;1.03;;
828;SDS011;396;52.558;13.188;2024-03-23T13:24:21;5.30;;;1.40;;
828;SDS011;396;52.558;13.188;2024-03-23T13:26:47;3.10;;;1.30;;
828;SDS011;396;52.558;13.188;2024-03-23T13:29:14;5.10;;;1.40;;
828;SDS011;396;52.558;13.188;2024-03-23T13:31:39;73.00;;;27.43;;
828;SDS011;396;52.558;13.188;2024-03-23T13:34:06;90.87;;;22.57;;
828;SDS011;396;52.558;13.188;2024-03-23T13:36:32;1999.90;;;999.90;;
828;SDS011;396;52.558;13.188;2024-03-23T13:39:00;1999.90;;;999.90;;
828;SDS011;396;52.558;13.188;2024-03-23T13:41:26;1367.27;;;668.97;;
828;SDS011;396;52.558;13.188;2024-03-23T13:43:52;87.23;;;7.27;;
828;SDS011;396;52.558;13.188;2024-03-23T13:46:18;4.53;;;1.47;;
828;SDS011;396;52.558;13.188;2024-03-23T13:48:44;4.87;;;1.43;;
828;SDS011;396;52.558;13.188;2024-03-23T13:51:10;3.60;;;1.30;;
828;SDS011;396;52.558;13.188;2024-03-23T13:53:38;2.67;;;0.93;;
828;SDS011;396;52.558;13.188;2024-03-23T13:56:05;2.57;;;0.93;;
828;SDS011;396;52.558;13.188;2024-03-23T13:58:32;2.60;;;1.10;;
828;SDS011;396;52.558;13.188;2024-03-23T14:00:58;6.27;;;1.33;;
828;SDS011;396;52.558;13.188;2024-03-23T14:03:24;3.20;;;1.20;;
828;SDS011;396;52.558;13.188;2024-03-23T14:05:50;3.07;;;1.30;;
828;SDS011;396;52.558;13.188;2024-03-23T14:08:17;5.10;;;1.37;;
828;SDS011;396;52.558;13.188;2024-03-23T14:10:43;3.90;;;1.90;;
828;SDS011;396;52.558;13.188;2024-03-23T14:13:11;2.87;;;0.80;;
828;SDS011;396;52.558;13.188;2024-03-23T14:15:37;5.67;;;1.07;;
828;SDS011;396;52.558;13.188;2024-03-23T14:18:04;4.73;;;1.53;;
828;SDS011;396;52.558;13.188;2024-03-23T14:20:30;5.17;;;1.60;;
828;SDS011;396;52.558;13.188;2024-03-23T14:22:56;3.33;;;1.30;;
828;SDS011;396;52.558;13.188;2024-03-23T14:25:22;2.80;;;1.10;;
828;SDS011;396;52.558;13.188;2024-03-23T14:27:52;2.30;;;0.70;;
828;SDS011;396;52.558;13.188;2024-03-23T14:30:19;1.90;;;0.60;;
828;SDS011;396;52.558;13.188;2024-03-23T14:32:46;3.90;;;1.03;;
828;SDS011;396;52.558;13.188;2024-03-23T14:35:11;3.83;;;1.23;;
828;SDS011;396;52.558;13.188;2024-03-23T14:37:38;2.50;;;0.70;;
828;SDS011;396;52.558;13.188;2024-03-23T14:40:04;5.93;;;0.80;;
828;SDS011;396;52.558;13.188;2024-03-23T14:42:31;3.07;;;0.90;;
828;SDS011;396;52.558;13.188;2024-03-23T14:44:57;1.90;;;0.60;;
828;SDS011;396;52.558;13.188;2024-03-23T14:47:25;6.27;;;1.47;;
828;SDS011;396;52.558;13.188;2024-03-23T14:49:51;1.90;;;0.50;;
828;SDS011;396;52.558;13.188;2024-03-23T14:52:18;2.93;;;0.70;;
828;SDS011;396;52.558;13.188;2024-03-23T14:54:43;2.63;;;1.07;;
828;SDS011;396;52.558;13.188;2024-03-23T14:57:10;2.47;;;0.93;;
828;SDS011;396;52.558;13.188;2024-03-23T14:59:36;2.10;;;0.63;;
828;SDS011;396;52.558;13.188;2024-03-23T15:02:04;2.13;;;0.83;;
828;SDS011;396;52.558;13.188;2024-03-23T15:04:31;2.37;;;0.70;;
828;SDS011;396;52.558;13.188;2024-03-23T15:06:57;2.53;;;1.73;;
828;SDS011;396;52.558;13.188;2024-03-23T15:09:23;3.60;;;1.30;;
828;SDS011;396;52.558;13.188;2024-03-23T15:11:50;2.17;;;0.60;;
828;SDS011;396;52.558;13.188;2024-03-23T15:14:15;3.60;;;1.30;;
828;SDS011;396;52.558;13.188;2024-03-23T15:16:42;3.37;;;0.97;;
828;SDS011;396;52.558;13.188;2024-03-23T15:19:07;2.50;;;0.63;;
828;SDS011;396;52.558;13.188;2024-03-23T15:21:36;4.87;;;1.07;;
828;SDS011;396;52.558;13.188;2024-03-23T15:24:01;37.27;;;2.97;;
828;SDS011;396;52.558;13.188;2024-03-23T15:26:28;2.30;;;0.67;;
828;SDS011;396;52.558;13.188;2024-03-23T15:28:54;2.30;;;0.70;;
828;SDS011;396;52.558;13.188;2024-03-23T15:31:35;6.33;;;1.07;;
828;SDS011;396;52.558;13.188;2024-03-23T15:34:02;2.20;;;0.77;;
828;SDS011;396;52.558;13.188;2024-03-23T15:36:28;2.60;;;0.87;;
828;SDS011;396;52.558;13.188;2024-03-23T15:38:55;2.43;;;0.90;;
828;SDS011;396;52.558;13.188;2024-03-23T15:41:22;2.37;;;1.00;;
828;SDS011;396;52.558;13.188;2024-03-23T15:43:48;2.30;;;0.83;;
828;SDS011;396;52.558;13.188;2024-03-23T15:46:15;2.30;;;0.90;;
828;SDS011;396;52.558;13.188;2024-03-23T15:48:41;2.20;;;0.60;;
828;SDS011;396;52.558;13.188;2024-03-23T15:51:11;2.10;;;0.50;;
828;SDS011;396;52.558;13.188;2024-03-23T15:53:37;2.10;;;0.70;;
828;SDS011;396;52.558;13.188;2024-03-23T15:56:05;1.87;;;0.50;;
828;SDS011;396;52.558;13.188;2024-03-23T15:58:32;2.77;;;0.93;;
828;SDS011;396;52.558;13.188;2024-03-23T16:01:00;3.30;;;1.17;;
828;SDS011;396;52.558;13.188;2024-03-23T16:03:27;2.40;;;0.60;;
828;SDS011;396;52.558;13.188;2024-03-23T16:05:54;2.40;;;1.27;;
828;SDS011;396;52.558;13.188;2024-03-23T16:08:21;2.37;;;0.60;;
828;SDS011;396;52.558;13.188;2024-03-23T16:10:48;1.73;;;0.30;;
828;SDS011;396;52.558;13.188;2024-03-23T16:13:15;1.90;;;0.40;;
828;SDS011;396;52.558;13.188;2024-03-23T16:15:43;2.70;;;0.73;;
828;SDS011;396;52.558;13.188;2024-03-23T16:18:08;1.80;;;0.43;;
828;SDS011;396;52.558;13.188;2024-03-23T16:20:36;1.97;;;0.50;;
828;SDS011;396;52.558;13.188;2024-03-23T16:23:01;1.90;;;0.40;;
828;SDS011;396;52.558;13.188;2024-03-23T16:25:28;2.30;;;0.83;;